Time;durP1;ratioP1;P1;durP2;ratioP2;P2;SDS_P1;SDS_P2;PMS_P1;PMS_P2;Temp;Humidity;BMP_temperature;BMP_pressure;BME280_temperature;BME280_humidity;BME280_pressure;Samples;Min_cycle;Max_cycle;Signal;HPM_P1;HPM_P2
2022/09/03 00:00:14;;;;;;;1.77;1.07;;;16.20;99.90;;;;;;5012560;28;20241;-47
2022/09/03 00:02:44;;;;;;;1.93;0.80;;;16.30;99.90;;;;;;5009536;28;20300;-46
2022/09/03 00:05:20;;;;;;;2.10;1.10;;;16.20;99.90;;;;;;5009126;28;20243;-49
2022/09/03 00:07:57;;;;;;;1.07;0.97;;;16.20;99.90;;;;;;5012972;28;20235;-47
2022/09/03 00:10:31;;;;;;;2.13;1.00;;;16.10;99.90;;;;;;5005137;28;20709;-45
2022/09/03 00:13:04;;;;;;;2.83;0.93;;;16.20;99.90;;;;;;5010219;28;20229;-47
2022/09/03 00:15:34;;;;;;;1.33;0.90;;;16.10;99.90;;;;;;5007531;28;20226;-46
2022/09/03 00:18:08;;;;;;;0.90;0.90;;;16.10;99.90;;;;;;5008574;28;20279;-47
2022/09/03 00:20:42;;;;;;;1.83;0.90;;;16.00;99.90;;;;;;5007236;28;21127;-48
2022/09/03 00:23:16;;;;;;;1.80;0.90;;;16.00;99.90;;;;;;5011341;28;20239;-48
2022/09/03 00:25:49;;;;;;;0.83;0.80;;;16.00;99.90;;;;;;5011780;28;20240;-47
2022/09/03 00:28:23;;;;;;;1.77;0.80;;;16.00;99.90;;;;;;5005246;28;20229;-46
2022/09/03 00:30:56;;;;;;;3.80;1.07;;;15.90;99.90;;;;;;5010138;28;20244;-45
2022/09/03 00:33:28;;;;;;;1.63;1.00;;;15.90;99.90;;;;;;5008631;28;20240;-47
2022/09/03 00:36:06;;;;;;;2.30;1.10;;;15.90;99.90;;;;;;5015745;28;20243;-48
2022/09/03 00:38:37;;;;;;;1.13;0.90;;;15.90;99.90;;;;;;5011112;28;20697;-47
2022/09/03 00:41:15;;;;;;;1.10;1.00;;;15.90;99.90;;;;;;5010128;28;20221;-47
2022/09/03 00:43:58;;;;;;;1.00;0.90;;;15.90;99.90;;;;;;5014522;28;20772;-46
2022/09/03 00:46:33;;;;;;;1.83;0.80;;;15.80;99.90;;;;;;5007098;28;20229;-46
2022/09/03 00:49:19;;;;;;;0.80;0.80;;;15.80;99.90;;;;;;5012616;28;20236;-46
2022/09/03 00:51:55;;;;;;;2.00;0.93;;;15.80;99.90;;;;;;5011552;28;20575;-48
2022/09/03 00:54:34;;;;;;;1.17;0.70;;;15.80;99.90;;;;;;5016442;28;20323;-47
2022/09/03 00:57:13;;;;;;;1.40;0.97;;;15.80;99.90;;;;;;5017733;28;20224;-47
2022/09/03 00:59:48;;;;;;;3.80;1.13;;;15.70;99.90;;;;;;5012050;28;20224;-48
2022/09/03 01:02:27;;;;;;;2.93;0.90;;;15.70;99.90;;;;;;5010094;28;21231;-46
2022/09/03 01:05:02;;;;;;;1.23;0.90;;;15.60;99.90;;;;;;5011569;28;20322;-46
2022/09/03 01:07:38;;;;;;;1.93;1.00;;;15.60;99.90;;;;;;5017517;28;20247;-47
2022/09/03 01:10:18;;;;;;;1.20;1.00;;;15.60;99.90;;;;;;5014996;28;20228;-49
2022/09/03 01:12:55;;;;;;;1.10;1.00;;;15.60;99.90;;;;;;5011782;28;20283;-46
2022/09/03 01:15:31;;;;;;;2.30;1.10;;;15.60;99.90;;;;;;5015627;28;20239;-49
2022/09/03 01:18:16;;;;;;;1.00;0.90;;;15.50;99.90;;;;;;5012762;28;20385;-48
2022/09/03 01:20:53;;;;;;;1.50;0.90;;;15.60;99.90;;;;;;5009057;28;20240;-48
2022/09/03 01:24:16;;;;;;;1.63;0.90;;;15.50;99.90;;;;;;5015758;28;20229;-47
2022/09/03 01:27:00;;;;;;;1.80;1.00;;;15.50;99.90;;;;;;4970724;28;20230;-46
2022/09/03 01:29:36;;;;;;;1.40;1.00;;;15.40;99.90;;;;;;4974374;28;20733;-49
2022/09/03 01:32:15;;;;;;;1.00;0.90;;;15.40;99.90;;;;;;5005907;28;20244;-46
2022/09/03 01:34:52;;;;;;;3.47;0.90;;;15.40;99.90;;;;;;5007521;28;20236;-47
2022/09/03 01:37:34;;;;;;;2.53;1.00;;;15.40;99.90;;;;;;5016953;28;20231;-47
2022/09/03 01:40:10;;;;;;;1.10;1.00;;;15.40;99.90;;;;;;5012645;28;20323;-49
2022/09/03 01:42:53;;;;;;;1.93;1.00;;;15.40;99.90;;;;;;5012898;28;20247;-49
2022/09/03 01:45:40;;;;;;;1.80;0.83;;;15.40;99.90;;;;;;5010553;28;20736;-47
2022/09/03 01:48:31;;;;;;;3.00;1.00;;;15.40;99.90;;;;;;5009547;28;20233;-47
2022/09/03 01:51:09;;;;;;;1.30;0.80;;;15.30;99.90;;;;;;5010023;28;20233;-46
2022/09/03 01:54:08;;;;;;;1.87;0.90;;;15.30;99.90;;;;;;5009942;28;20278;-50
2022/09/03 01:57:25;;;;;;;1.37;0.90;;;15.30;99.90;;;;;;5016287;28;20233;-47
2022/09/03 02:00:12;;;;;;;1.77;0.90;;;15.30;99.90;;;;;;4994270;28;20239;-50
2022/09/03 02:02:46;;;;;;;1.07;0.90;;;15.20;99.90;;;;;;5020992;28;20291;-47
2022/09/03 02:05:17;;;;;;;2.30;0.80;;;15.20;99.90;;;;;;5013566;28;20212;-47
2022/09/03 02:07:47;;;;;;;1.20;1.00;;;15.20;99.90;;;;;;5013860;28;20685;-46
2022/09/03 02:10:19;;;;;;;1.33;1.00;;;15.10;99.90;;;;;;5015185;28;20242;-46
2022/09/03 02:12:51;;;;;;;2.47;1.00;;;15.10;99.90;;;;;;5007803;28;20229;-47
2022/09/03 02:15:22;;;;;;;1.23;1.00;;;15.10;99.90;;;;;;5007550;28;20229;-46
2022/09/03 02:17:56;;;;;;;0.73;0.73;;;15.10;99.90;;;;;;5014005;28;20812;-48
2022/09/03 02:20:27;;;;;;;1.30;0.90;;;15.10;99.90;;;;;;5011483;28;20232;-48
2022/09/03 02:22:57;;;;;;;1.73;0.90;;;15.10;99.90;;;;;;5016769;28;20820;-49
2022/09/03 02:25:31;;;;;;;1.10;0.90;;;15.10;99.90;;;;;;5014787;28;20225;-48
2022/09/03 02:28:00;;;;;;;1.27;0.97;;;15.10;99.90;;;;;;5009893;28;20228;-49
2022/09/03 02:30:28;;;;;;;1.53;1.07;;;14.90;99.90;;;;;;5009822;28;20241;-46
2022/09/03 02:32:59;;;;;;;1.23;1.03;;;14.90;99.90;;;;;;5014456;28;20238;-47
2022/09/03 02:35:27;;;;;;;1.00;0.90;;;14.90;99.90;;;;;;5007419;28;20247;-49
2022/09/03 02:37:55;;;;;;;1.77;0.80;;;14.90;99.90;;;;;;5012870;28;20243;-46
2022/09/03 02:40:23;;;;;;;1.83;0.90;;;14.90;99.90;;;;;;5012932;28;20229;-46
2022/09/03 02:42:52;;;;;;;1.10;1.00;;;14.90;99.90;;;;;;5008488;28;20669;-49
2022/09/03 02:45:26;;;;;;;1.17;1.00;;;14.80;99.90;;;;;;5012990;28;20226;-46
2022/09/03 02:47:56;;;;;;;1.20;0.90;;;14.90;99.90;;;;;;5011017;28;20240;-47
2022/09/03 02:50:26;;;;;;;1.60;1.07;;;14.90;99.90;;;;;;5008050;28;20735;-46
2022/09/03 02:52:55;;;;;;;1.23;0.97;;;14.90;99.90;;;;;;5011914;28;20626;-49
2022/09/03 02:55:23;;;;;;;1.30;1.10;;;14.90;99.90;;;;;;5011343;28;20217;-47
2022/09/03 02:57:51;;;;;;;1.77;1.00;;;14.90;99.90;;;;;;5013175;28;20306;-46
2022/09/03 03:00:19;;;;;;;1.73;1.10;;;14.80;99.90;;;;;;5006118;28;20239;-46
2022/09/03 03:02:47;;;;;;;1.97;1.00;;;14.80;99.90;;;;;;5013218;28;20242;-46
2022/09/03 03:05:23;;;;;;;2.10;1.20;;;14.80;99.90;;;;;;5008944;28;20221;-48
2022/09/03 03:07:54;;;;;;;1.57;0.90;;;14.70;99.90;;;;;;5013724;28;20233;-46
2022/09/03 03:10:22;;;;;;;1.50;1.17;;;14.70;99.90;;;;;;5015517;28;20229;-47
2022/09/03 03:12:50;;;;;;;1.43;1.10;;;14.70;99.90;;;;;;5013062;28;20723;-47
2022/09/03 03:15:18;;;;;;;1.83;1.00;;;14.70;99.90;;;;;;5010905;28;20228;-48
2022/09/03 03:17:47;;;;;;;1.63;1.00;;;14.60;99.90;;;;;;5005686;28;20229;-47
2022/09/03 03:20:15;;;;;;;2.27;1.20;;;14.60;99.90;;;;;;5008757;28;20224;-48
2022/09/03 03:22:43;;;;;;;1.57;1.00;;;14.60;99.90;;;;;;5010536;28;20233;-47
2022/09/03 03:25:12;;;;;;;2.27;1.13;;;14.60;99.90;;;;;;5009378;28;20708;-46
2022/09/03 03:27:42;;;;;;;1.77;1.07;;;14.60;99.90;;;;;;5006998;28;20248;-47
2022/09/03 03:30:11;;;;;;;1.53;0.90;;;14.60;99.90;;;;;;5009140;28;20242;-49
2022/09/03 03:32:39;;;;;;;1.03;0.93;;;14.60;99.90;;;;;;5006153;28;20248;-47
2022/09/03 03:35:08;;;;;;;2.77;1.00;;;14.60;99.90;;;;;;5008386;28;20232;-46
2022/09/03 03:37:36;;;;;;;2.43;1.03;;;14.50;99.90;;;;;;5008505;28;20320;-46
2022/09/03 03:40:05;;;;;;;2.03;1.00;;;14.50;99.90;;;;;;5014730;28;20233;-47
2022/09/03 03:42:35;;;;;;;1.80;1.20;;;14.50;99.90;;;;;;5012135;28;20245;-49
2022/09/03 03:45:03;;;;;;;1.30;1.00;;;14.50;99.90;;;;;;5010646;28;20236;-48
2022/09/03 03:47:34;;;;;;;1.73;1.00;;;14.50;99.90;;;;;;5014044;28;21305;-47
2022/09/03 03:50:03;;;;;;;1.53;1.03;;;14.50;99.90;;;;;;5010650;28;20250;-49
2022/09/03 03:52:31;;;;;;;1.17;1.03;;;14.40;99.90;;;;;;5010177;28;20715;-47
2022/09/03 03:54:59;;;;;;;1.37;0.90;;;14.50;99.90;;;;;;5011565;28;20807;-47
2022/09/03 03:57:30;;;;;;;2.10;1.10;;;14.40;99.90;;;;;;5007212;28;20233;-47
2022/09/03 04:00:00;;;;;;;1.70;1.00;;;14.40;99.90;;;;;;5006055;28;20237;-48
2022/09/03 04:02:41;;;;;;;2.40;0.97;;;14.30;99.90;;;;;;5010592;28;20271;-46
2022/09/03 04:05:09;;;;;;;1.97;1.00;;;14.40;99.90;;;;;;5012184;28;20264;-47
2022/09/03 04:07:38;;;;;;;1.30;1.10;;;14.30;99.90;;;;;;5017130;28;20721;-48
2022/09/03 04:10:08;;;;;;;2.77;1.20;;;14.30;99.90;;;;;;5011945;28;20701;-48
2022/09/03 04:12:36;;;;;;;2.50;1.30;;;14.30;99.90;;;;;;5011103;28;20243;-49
2022/09/03 04:15:06;;;;;;;2.30;1.00;;;14.30;99.90;;;;;;5011066;28;20233;-48
2022/09/03 04:17:34;;;;;;;1.33;1.20;;;14.30;99.90;;;;;;5015552;28;20646;-47
2022/09/03 04:20:03;;;;;;;1.63;1.33;;;14.30;99.90;;;;;;5011023;28;20235;-47
2022/09/03 04:22:31;;;;;;;2.53;1.40;;;14.30;99.90;;;;;;5011678;28;20280;-48
2022/09/03 04:24:59;;;;;;;1.67;1.20;;;14.30;99.90;;;;;;5011951;28;20236;-48
2022/09/03 04:27:27;;;;;;;1.30;1.20;;;14.30;99.90;;;;;;5010863;28;20236;-48
2022/09/03 04:29:55;;;;;;;1.63;1.17;;;14.30;99.90;;;;;;5006145;28;20600;-46
2022/09/03 04:35:10;;;;;;;1.20;1.10;;;14.20;99.90;;;;;;5014492;28;20228;-48
2022/09/03 04:37:38;;;;;;;2.37;1.30;;;14.20;99.90;;;;;;5011430;28;20246;-47
2022/09/03 04:40:07;;;;;;;3.63;1.40;;;14.10;99.90;;;;;;5008804;28;20256;-46
2022/09/03 04:42:35;;;;;;;2.23;1.20;;;14.10;99.90;;;;;;5009715;28;20716;-46
2022/09/03 04:45:04;;;;;;;1.53;1.03;;;14.10;99.90;;;;;;5012217;28;20244;-46
2022/09/03 04:47:35;;;;;;;1.63;1.10;;;14.10;99.90;;;;;;5004504;28;20228;-47
2022/09/03 04:50:04;;;;;;;4.40;1.30;;;14.10;99.90;;;;;;5016767;28;20243;-49
2022/09/03 04:52:32;;;;;;;1.13;1.00;;;14.20;99.90;;;;;;5004679;28;20233;-50
2022/09/03 04:55:01;;;;;;;2.13;1.40;;;14.10;99.90;;;;;;5018436;28;20244;-48
2022/09/03 04:57:33;;;;;;;2.13;1.30;;;14.10;99.90;;;;;;5006899;28;20238;-49
2022/09/03 05:00:01;;;;;;;1.80;1.10;;;14.10;99.90;;;;;;5004960;28;20649;-45
2022/09/03 05:02:29;;;;;;;2.47;1.20;;;14.10;99.90;;;;;;5004742;28;20253;-49
2022/09/03 05:04:58;;;;;;;1.17;0.90;;;14.10;99.90;;;;;;5010305;28;20233;-47
2022/09/03 05:07:27;;;;;;;1.67;1.10;;;14.10;99.90;;;;;;5008880;28;20244;-50
2022/09/03 05:09:57;;;;;;;1.23;1.13;;;14.20;99.90;;;;;;5009260;28;20327;-48
2022/09/03 05:12:25;;;;;;;2.90;1.20;;;14.10;99.90;;;;;;5011520;28;20603;-48
2022/09/03 05:14:53;;;;;;;2.00;1.30;;;14.20;99.90;;;;;;5007286;28;20859;-47
2022/09/03 05:17:21;;;;;;;2.77;1.20;;;14.20;99.90;;;;;;5005874;28;20255;-48
2022/09/03 05:19:49;;;;;;;4.03;1.23;;;14.20;99.90;;;;;;5008054;28;20321;-46
2022/09/03 05:22:20;;;;;;;1.33;1.23;;;14.30;99.90;;;;;;5010728;28;20239;-49
2022/09/03 05:24:48;;;;;;;1.30;1.10;;;14.30;99.90;;;;;;5014881;28;20225;-48
2022/09/03 05:27:17;;;;;;;1.80;1.37;;;14.30;99.90;;;;;;5015222;28;20237;-49
2022/09/03 05:29:45;;;;;;;1.30;1.10;;;14.40;99.90;;;;;;5014853;28;20244;-49
2022/09/03 05:32:15;;;;;;;1.30;0.97;;;14.40;99.90;;;;;;5013139;28;20241;-46
2022/09/03 05:34:43;;;;;;;1.13;1.00;;;14.40;99.90;;;;;;5008887;28;20240;-46
2022/09/03 05:37:11;;;;;;;1.90;1.00;;;14.40;99.90;;;;;;5008537;28;20727;-48
2022/09/03 05:39:40;;;;;;;1.63;1.13;;;14.40;99.90;;;;;;5007755;28;20233;-46
2022/09/03 05:42:09;;;;;;;3.33;1.10;;;14.50;99.90;;;;;;5008916;28;20256;-48
2022/09/03 05:44:38;;;;;;;2.93;1.23;;;14.60;99.90;;;;;;5008859;28;20654;-48
2022/09/03 05:47:06;;;;;;;2.73;1.27;;;14.60;99.90;;;;;;5008777;28;20235;-47
2022/09/03 05:49:34;;;;;;;1.10;0.90;;;14.70;99.90;;;;;;5007402;28;20320;-46
2022/09/03 05:52:03;;;;;;;1.47;1.10;;;14.90;99.90;;;;;;5008583;28;20230;-48
2022/09/03 05:54:31;;;;;;;1.27;0.97;;;14.90;99.90;;;;;;5008805;28;20237;-46
2022/09/03 05:57:00;;;;;;;2.80;1.20;;;15.00;99.90;;;;;;5008550;28;20294;-46
2022/09/03 05:59:28;;;;;;;1.13;1.00;;;15.20;99.90;;;;;;5008372;28;21620;-48
2022/09/03 06:01:57;;;;;;;3.70;1.33;;;15.20;99.90;;;;;;5008518;28;20233;-46
2022/09/03 06:04:27;;;;;;;3.13;1.20;;;15.30;99.90;;;;;;5008628;28;20253;-48
2022/09/03 06:06:56;;;;;;;1.30;1.20;;;15.40;99.90;;;;;;5008760;28;20217;-46
2022/09/03 06:09:24;;;;;;;3.37;1.20;;;15.50;99.90;;;;;;5007552;28;20232;-47
2022/09/03 06:11:53;;;;;;;1.60;1.17;;;15.70;99.90;;;;;;5008511;28;20244;-47
2022/09/03 06:14:25;;;;;;;2.30;1.27;;;15.80;99.90;;;;;;5008389;28;20717;-49
2022/09/03 06:16:55;;;;;;;2.33;1.10;;;15.80;99.90;;;;;;5008055;28;20719;-48
2022/09/03 06:19:23;;;;;;;1.70;1.20;;;15.90;99.90;;;;;;5007040;28;20225;-47
2022/09/03 06:21:51;;;;;;;1.67;1.00;;;16.00;99.90;;;;;;5007794;28;20757;-47
2022/09/03 06:24:22;;;;;;;2.57;1.17;;;16.00;99.90;;;;;;5005967;28;20304;-48
2022/09/03 06:26:55;;;;;;;1.67;1.30;;;16.10;99.90;;;;;;5007658;28;20236;-46
2022/09/03 06:29:23;;;;;;;1.33;1.20;;;16.20;99.90;;;;;;5006497;28;20295;-48
2022/09/03 06:31:52;;;;;;;1.57;1.37;;;16.40;99.90;;;;;;5006876;28;20239;-47
2022/09/03 06:34:21;;;;;;;1.90;1.13;;;16.50;99.90;;;;;;5007322;28;20221;-49
2022/09/03 06:36:51;;;;;;;1.23;1.10;;;16.70;99.90;;;;;;5007555;28;20237;-49
2022/09/03 06:39:21;;;;;;;1.20;1.10;;;16.90;99.90;;;;;;5015825;28;20355;-47
2022/09/03 06:41:50;;;;;;;2.93;1.10;;;16.90;99.90;;;;;;5007242;28;20252;-48
2022/09/03 06:44:25;;;;;;;2.50;1.20;;;17.10;99.90;;;;;;5020471;28;20239;-47
2022/09/03 06:46:55;;;;;;;3.47;1.20;;;17.20;99.90;;;;;;5009599;28;20591;-47
2022/09/03 06:49:25;;;;;;;1.77;1.10;;;17.30;99.90;;;;;;5006765;28;20229;-47
2022/09/03 06:51:53;;;;;;;2.80;1.10;;;17.50;99.90;;;;;;5007417;28;20238;-49
2022/09/03 06:54:21;;;;;;;2.17;1.20;;;17.50;99.90;;;;;;5007001;28;20585;-48
2022/09/03 06:56:50;;;;;;;1.20;1.10;;;17.60;99.90;;;;;;5011899;28;20217;-47
2022/09/03 06:59:18;;;;;;;1.17;1.07;;;17.70;99.90;;;;;;5009231;28;20221;-47
2022/09/03 07:01:46;;;;;;;1.20;0.87;;;17.90;99.90;;;;;;5008403;28;20257;-47
2022/09/03 07:04:16;;;;;;;1.20;1.10;;;17.90;99.90;;;;;;5014369;28;20291;-49
2022/09/03 07:06:48;;;;;;;2.60;1.20;;;18.20;99.90;;;;;;5015779;28;20727;-48
2022/09/03 07:09:17;;;;;;;1.40;1.20;;;18.20;99.90;;;;;;5013931;28;20228;-47
2022/09/03 07:11:49;;;;;;;1.30;0.93;;;18.20;99.90;;;;;;5007031;28;20238;-48
2022/09/03 07:14:19;;;;;;;3.20;1.30;;;18.30;99.90;;;;;;5014039;28;20244;-47
2022/09/03 07:16:48;;;;;;;2.00;1.10;;;18.40;99.90;;;;;;5015057;28;20585;-50
2022/09/03 07:19:18;;;;;;;3.57;1.30;;;18.50;99.90;;;;;;5009112;28;20234;-46
2022/09/03 07:21:46;;;;;;;2.00;1.10;;;18.80;99.90;;;;;;5010576;28;20833;-47
2022/09/03 07:24:20;;;;;;;2.47;1.10;;;18.90;99.90;;;;;;5010885;28;20307;-47
2022/09/03 07:26:49;;;;;;;1.70;1.00;;;19.00;99.90;;;;;;5007958;28;20360;-47
2022/09/03 07:29:19;;;;;;;2.90;1.03;;;19.10;99.90;;;;;;5013773;28;20321;-48
2022/09/03 07:31:50;;;;;;;2.23;1.07;;;19.20;99.90;;;;;;5008158;28;20253;-48
2022/09/03 07:34:24;;;;;;;2.00;0.80;;;19.40;99.90;;;;;;5009826;28;20285;-48
2022/09/03 07:36:54;;;;;;;3.33;0.90;;;19.50;99.90;;;;;;5014771;28;20365;-48
2022/09/03 07:39:22;;;;;;;1.60;1.00;;;19.60;99.90;;;;;;5015087;28;20624;-49
2022/09/03 07:41:50;;;;;;;2.00;1.00;;;19.70;99.90;;;;;;5009616;28;20325;-49
2022/09/03 07:44:19;;;;;;;3.33;1.00;;;19.80;99.90;;;;;;5013789;28;20236;-49
2022/09/03 07:46:49;;;;;;;4.20;1.30;;;20.00;99.90;;;;;;5009385;28;20711;-47
2022/09/03 07:49:19;;;;;;;1.73;1.00;;;20.10;99.90;;;;;;5010854;28;20225;-49
2022/09/03 07:51:51;;;;;;;2.37;1.00;;;20.10;99.90;;;;;;5013179;28;20323;-47
2022/09/03 07:54:20;;;;;;;1.30;0.90;;;20.20;99.90;;;;;;5013065;28;20228;-49
2022/09/03 07:56:48;;;;;;;1.67;1.17;;;20.40;99.90;;;;;;5008078;28;20235;-49
2022/09/03 07:59:16;;;;;;;2.87;1.20;;;20.50;99.90;;;;;;5011107;28;20238;-49
2022/09/03 08:01:45;;;;;;;2.70;1.00;;;20.70;99.90;;;;;;5014655;28;20244;-48
2022/09/03 08:04:13;;;;;;;2.30;0.90;;;20.70;99.90;;;;;;5010635;28;20246;-49
2022/09/03 08:06:41;;;;;;;3.23;1.13;;;20.80;99.90;;;;;;5011164;28;20702;-47
2022/09/03 08:09:13;;;;;;;1.80;1.07;;;20.80;99.90;;;;;;5013346;28;20346;-48
2022/09/03 08:11:43;;;;;;;2.73;1.13;;;20.50;99.90;;;;;;5010259;28;20237;-47
2022/09/03 08:14:15;;;;;;;2.03;0.90;;;20.30;99.90;;;;;;5006253;28;20236;-47
2022/09/03 08:16:46;;;;;;;3.43;1.30;;;20.30;99.90;;;;;;5009965;28;20232;-49
2022/09/03 08:19:14;;;;;;;2.50;1.00;;;20.40;99.90;;;;;;5008162;28;20675;-49
2022/09/03 08:21:42;;;;;;;3.67;1.10;;;20.70;99.90;;;;;;5011115;28;20330;-49
2022/09/03 08:24:14;;;;;;;2.87;1.20;;;21.10;99.90;;;;;;5011309;28;20231;-48
2022/09/03 08:26:42;;;;;;;1.50;0.93;;;21.40;99.90;;;;;;5009161;28;20342;-49
2022/09/03 08:29:19;;;;;;;2.67;1.17;;;21.40;99.90;;;;;;5009069;28;20244;-49
2022/09/03 08:31:47;;;;;;;1.43;0.87;;;21.50;99.90;;;;;;5006942;28;20243;-48
2022/09/03 08:34:16;;;;;;;2.83;1.00;;;21.50;99.90;;;;;;5013640;28;20236;-48
2022/09/03 08:36:46;;;;;;;1.77;0.90;;;21.30;99.90;;;;;;5006568;28;20310;-49
2022/09/03 08:39:16;;;;;;;1.90;0.90;;;21.20;99.90;;;;;;5005284;28;20275;-49
2022/09/03 08:42:20;;;;;;;3.77;1.00;;;21.00;99.90;;;;;;5010040;28;20323;-48
2022/09/03 08:44:52;;;;;;;1.90;0.90;;;21.30;99.90;;;;;;5004905;28;20232;-48
2022/09/03 08:47:24;;;;;;;3.43;0.93;;;21.30;99.90;;;;;;5007025;28;20228;-48
2022/09/03 08:49:57;;;;;;;2.33;1.20;;;21.70;99.90;;;;;;5008057;28;20711;-47
2022/09/03 08:52:31;;;;;;;2.23;1.00;;;22.00;99.90;;;;;;5007080;28;20241;-47
2022/09/03 08:55:14;;;;;;;2.57;1.10;;;22.40;99.90;;;;;;5007486;28;20246;-49
2022/09/03 08:57:46;;;;;;;2.37;1.20;;;22.40;99.90;;;;;;5015900;28;20375;-48
2022/09/03 09:00:15;;;;;;;2.63;1.10;;;22.50;99.90;;;;;;5012283;28;21462;-46
2022/09/03 09:02:53;;;;;;;2.60;1.17;;;22.50;99.90;;;;;;5010421;28;20324;-48
2022/09/03 09:05:27;;;;;;;2.67;1.03;;;22.30;99.90;;;;;;5011738;28;20227;-47
2022/09/03 09:08:07;;;;;;;2.23;1.00;;;22.40;99.90;;;;;;5009033;28;20233;-47
2022/09/03 09:10:44;;;;;;;3.87;1.10;;;22.30;99.90;;;;;;5008597;28;20239;-48
2022/09/03 09:13:22;;;;;;;1.93;0.90;;;22.30;99.90;;;;;;5014212;28;20319;-48
2022/09/03 09:16:02;;;;;;;1.67;0.90;;;22.30;99.90;;;;;;5016286;28;20697;-46
2022/09/03 09:18:44;;;;;;;2.33;1.00;;;22.60;99.90;;;;;;5010974;28;20242;-49
2022/09/03 09:21:16;;;;;;;2.43;0.97;;;22.90;99.90;;;;;;5013763;28;20239;-48
2022/09/03 09:23:50;;;;;;;3.20;1.17;;;23.30;99.90;;;;;;5015504;28;20322;-47
2022/09/03 09:26:21;;;;;;;2.50;1.00;;;23.50;99.90;;;;;;5015234;28;20249;-49
2022/09/03 09:28:55;;;;;;;2.13;0.93;;;23.70;99.90;;;;;;5008769;28;20229;-48
2022/09/03 09:31:25;;;;;;;1.47;1.00;;;23.90;99.90;;;;;;5014735;28;20260;-50
2022/09/03 09:33:53;;;;;;;2.70;1.00;;;23.90;99.90;;;;;;5012307;28;20233;-49
2022/09/03 09:36:23;;;;;;;2.50;0.97;;;24.00;99.90;;;;;;5017553;28;20243;-48
2022/09/03 09:38:52;;;;;;;2.13;0.80;;;24.20;99.90;;;;;;5010379;28;20240;-50
2022/09/03 09:41:22;;;;;;;5.63;1.40;;;23.90;99.90;;;;;;5007806;28;20233;-49
2022/09/03 09:44:01;;;;;;;2.50;1.10;;;23.90;99.90;;;;;;5008773;28;20241;-50
2022/09/03 09:46:35;;;;;;;2.77;1.10;;;23.80;99.90;;;;;;5008607;28;20257;-48
2022/09/03 09:49:22;;;;;;;1.40;1.00;;;23.90;99.90;;;;;;5007562;28;20224;-50
2022/09/03 09:52:01;;;;;;;3.37;1.07;;;23.80;99.90;;;;;;5007919;28;20225;-47
2022/09/03 09:54:30;;;;;;;2.50;1.10;;;24.00;99.90;;;;;;5008314;28;20709;-47
2022/09/03 09:57:05;;;;;;;3.50;1.20;;;23.90;99.90;;;;;;5008163;28;20570;-49
2022/09/03 09:59:36;;;;;;;6.33;1.13;;;23.90;99.90;;;;;;5007829;28;20321;-50
2022/09/03 10:02:13;;;;;;;3.03;1.00;;;24.00;99.90;;;;;;5007531;28;20245;-48
2022/09/03 10:04:50;;;;;;;1.73;1.07;;;24.10;99.60;;;;;;5007318;28;20234;-50
2022/09/03 10:07:24;;;;;;;2.50;1.00;;;24.20;99.20;;;;;;5008422;28;20221;-48
2022/09/03 10:10:01;;;;;;;2.00;0.97;;;24.10;98.70;;;;;;5007359;28;20348;-47
2022/09/03 10:12:35;;;;;;;3.93;1.00;;;24.20;98.10;;;;;;5007822;28;20648;-48
2022/09/03 10:15:12;;;;;;;4.03;0.97;;;24.40;98.20;;;;;;5007510;28;20234;-51
2022/09/03 10:17:49;;;;;;;2.60;0.87;;;24.80;97.40;;;;;;5011957;28;20324;-47
2022/09/03 10:20:32;;;;;;;1.50;0.87;;;24.90;96.90;;;;;;5010665;28;20232;-51
2022/09/03 10:23:08;;;;;;;2.93;1.00;;;24.90;96.40;;;;;;5014981;28;20252;-48
2022/09/03 10:25:49;;;;;;;2.50;1.00;;;24.90;96.10;;;;;;5007997;28;20244;-48
2022/09/03 10:28:19;;;;;;;3.43;1.10;;;25.20;96.30;;;;;;5006579;28;20325;-48
2022/09/03 10:31:17;;;;;;;3.53;1.10;;;25.20;95.60;;;;;;5007373;28;20355;-48
2022/09/03 10:33:50;;;;;;;2.03;0.90;;;25.40;95.70;;;;;;5011870;28;20253;-49
2022/09/03 10:36:23;;;;;;;1.43;1.03;;;25.40;95.70;;;;;;5010287;28;20242;-50
2022/09/03 10:39:02;;;;;;;2.20;0.90;;;25.30;95.00;;;;;;5009111;28;20249;-50
2022/09/03 10:41:47;;;;;;;2.40;1.10;;;25.30;95.10;;;;;;5007758;28;20234;-51
2022/09/03 10:44:38;;;;;;;2.87;1.00;;;25.30;95.30;;;;;;5008528;28;20753;-50
2022/09/03 10:47:22;;;;;;;2.00;0.80;;;25.30;94.40;;;;;;5007315;28;20777;-50
2022/09/03 10:49:58;;;;;;;1.67;1.00;;;25.10;94.00;;;;;;5006806;28;20706;-50
2022/09/03 10:52:31;;;;;;;4.73;0.90;;;25.40;94.40;;;;;;5007650;28;20270;-49
2022/09/03 10:55:14;;;;;;;1.50;0.90;;;25.40;93.80;;;;;;5006870;28;20244;-48
2022/09/03 10:57:50;;;;;;;1.97;0.93;;;25.70;94.30;;;;;;5007010;28;20594;-51
2022/09/03 11:00:21;;;;;;;7.03;0.90;;;26.10;93.40;;;;;;5010149;28;20234;-51
2022/09/03 11:03:25;;;;;;;2.73;0.90;;;25.60;92.70;;;;;;5010691;28;20235;-49
2022/09/03 11:06:01;;;;;;;3.03;1.17;;;25.40;93.90;;;;;;5009711;28;20230;-49
2022/09/03 11:08:34;;;;;;;3.37;1.07;;;25.30;93.40;;;;;;5011197;28;20235;-48
2022/09/03 11:11:09;;;;;;;3.10;1.10;;;25.50;93.30;;;;;;5014444;28;20223;-51
2022/09/03 11:13:44;;;;;;;4.03;0.80;;;25.70;93.70;;;;;;5010264;28;20276;-48
2022/09/03 11:16:18;;;;;;;1.57;0.90;;;25.90;93.40;;;;;;5010388;28;20254;-50
2022/09/03 11:18:49;;;;;;;3.80;1.20;;;25.60;93.60;;;;;;5013380;28;20230;-52
2022/09/03 11:21:21;;;;;;;2.30;0.90;;;25.50;94.20;;;;;;5015509;28;20281;-52
2022/09/03 11:23:56;;;;;;;1.93;0.87;;;25.40;94.30;;;;;;5017969;28;20246;-52
2022/09/03 11:26:26;;;;;;;1.37;0.90;;;25.30;94.10;;;;;;5013021;28;20240;-51
2022/09/03 11:28:58;;;;;;;3.77;1.10;;;25.40;95.00;;;;;;5009494;28;20715;-51
2022/09/03 11:31:34;;;;;;;1.80;0.80;;;25.50;94.30;;;;;;5010665;28;20246;-51
2022/09/03 11:34:13;;;;;;;2.40;1.17;;;25.40;94.70;;;;;;5012494;28;20702;-52
2022/09/03 11:36:50;;;;;;;2.50;1.10;;;25.40;94.40;;;;;;5015768;28;20223;-52
2022/09/03 11:39:22;;;;;;;1.97;0.90;;;25.70;94.30;;;;;;5013199;28;20334;-51
2022/09/03 11:41:58;;;;;;;2.33;0.90;;;25.90;93.00;;;;;;5012514;28;20238;-52
2022/09/03 11:44:36;;;;;;;2.33;0.97;;;25.90;92.70;;;;;;5008452;28;20261;-51
2022/09/03 11:47:20;;;;;;;2.93;0.90;;;25.50;91.90;;;;;;5015196;28;20659;-53
2022/09/03 11:49:50;;;;;;;3.53;0.90;;;25.60;92.10;;;;;;5006743;28;20234;-51
2022/09/03 11:52:31;;;;;;;1.10;0.90;;;25.70;91.80;;;;;;5008031;28;20284;-52
2022/09/03 11:54:59;;;;;;;2.10;1.00;;;25.50;90.90;;;;;;5007422;28;21239;-50
2022/09/03 11:57:29;;;;;;;2.10;0.90;;;25.50;91.50;;;;;;5014487;28;20326;-52
2022/09/03 12:00:10;;;;;;;1.53;1.00;;;25.20;91.40;;;;;;5008977;28;20245;-52
2022/09/03 12:02:45;;;;;;;4.00;0.80;;;25.30;91.50;;;;;;5001618;28;20329;-51
2022/09/03 12:05:31;;;;;;;3.97;1.00;;;25.50;91.60;;;;;;5002272;28;20231;-49
2022/09/03 12:08:34;;;;;;;2.00;1.03;;;25.60;92.30;;;;;;5001555;28;20258;-52
2022/09/03 12:11:15;;;;;;;1.10;0.83;;;25.80;92.10;;;;;;5000140;28;20712;-53
2022/09/03 12:13:51;;;;;;;1.90;0.97;;;26.00;91.40;;;;;;5003111;28;20237;-50
2022/09/03 12:16:42;;;;;;;0.80;0.80;;;25.90;90.30;;;;;;5000616;28;20230;-51
2022/09/03 12:19:21;;;;;;;1.60;0.90;;;25.60;89.50;;;;;;5001946;28;21154;-52
2022/09/03 12:21:49;;;;;;;2.90;1.00;;;25.30;90.00;;;;;;5001133;28;20317;-50
2022/09/03 12:24:19;;;;;;;2.07;1.07;;;25.40;90.40;;;;;;5002804;28;20650;-51
2022/09/03 12:26:47;;;;;;;4.17;1.00;;;25.50;90.60;;;;;;5001389;28;21288;-52
2022/09/03 12:29:23;;;;;;;3.87;0.93;;;25.40;90.30;;;;;;5000826;28;20698;-52
2022/09/03 12:31:56;;;;;;;1.00;0.90;;;25.40;88.90;;;;;;5003024;28;20333;-53
2022/09/03 12:34:26;;;;;;;3.20;1.27;;;25.20;90.10;;;;;;5003068;28;20235;-52
2022/09/03 12:36:55;;;;;;;2.20;0.90;;;25.10;90.10;;;;;;5004040;28;20227;-51
2022/09/03 12:39:24;;;;;;;3.17;0.90;;;25.30;89.40;;;;;;5002980;28;20214;-53
2022/09/03 12:42:19;;;;;;;0.87;0.80;;;24.90;90.10;;;;;;5005432;28;20247;-52
2022/09/03 12:44:47;;;;;;;1.40;0.90;;;25.00;90.30;;;;;;5005999;28;20574;-52
2022/09/03 12:47:17;;;;;;;1.03;0.83;;;25.20;89.80;;;;;;5005331;28;20246;-50
2022/09/03 12:50:08;;;;;;;1.93;1.03;;;24.90;90.00;;;;;;4998168;28;20226;-53
2022/09/03 12:52:41;;;;;;;2.80;1.10;;;25.10;89.50;;;;;;4998359;28;20640;-53
2022/09/03 12:55:21;;;;;;;3.40;0.90;;;24.60;89.20;;;;;;5001725;28;20718;-51
2022/09/03 12:58:01;;;;;;;1.87;1.10;;;24.40;88.80;;;;;;4999086;28;20237;-52
2022/09/03 13:00:32;;;;;;;1.63;1.20;;;24.30;89.10;;;;;;4999882;28;20237;-49
2022/09/03 13:03:05;;;;;;;1.57;0.90;;;24.40;89.20;;;;;;5001805;28;20689;-51
2022/09/03 13:05:44;;;;;;;2.80;1.13;;;24.20;90.00;;;;;;5001715;28;20245;-52
2022/09/03 13:08:19;;;;;;;1.20;0.90;;;24.20;90.20;;;;;;5001345;28;20328;-51
2022/09/03 13:10:53;;;;;;;3.20;1.00;;;24.60;89.90;;;;;;4998192;28;20226;-53
2022/09/03 13:13:26;;;;;;;3.27;1.50;;;24.80;88.20;;;;;;5002977;28;20237;-51
2022/09/03 13:16:25;;;;;;;4.07;0.90;;;24.70;88.40;;;;;;5000569;28;20653;-53
2022/09/03 13:19:01;;;;;;;1.03;0.83;;;24.80;87.60;;;;;;4998241;28;20771;-52
2022/09/03 13:21:42;;;;;;;1.63;1.00;;;24.70;87.00;;;;;;5001782;28;20240;-49